Time;durP1;ratioP1;P1;durP2;ratioP2;P2;SDS_P1;SDS_P2;PMS_P1;PMS_P2;Temp;Humidity;BMP_temperature;BMP_pressure;BME280_temperature;BME280_humidity;BME280_pressure;Samples;Min_cycle;Max_cycle;Signal;HPM_P1;HPM_P2
2022/01/31 00:00:20;;;;;;;16.47;4.30;;;0.20;99.90;;;;;;4863495;29;20514;-78
2022/01/31 00:02:48;;;;;;;13.30;4.10;;;0.20;99.90;;;;;;4864090;29;20539;-78
2022/01/31 00:05:17;;;;;;;14.50;5.07;;;0.20;99.90;;;;;;4862959;29;20459;-77
2022/01/31 00:07:45;;;;;;;14.77;4.70;;;0.20;99.90;;;;;;4863278;29;20460;-78
2022/01/31 00:10:15;;;;;;;11.77;4.23;;;0.20;99.90;;;;;;4863039;29;21044;-79
2022/01/31 00:12:54;;;;;;;10.80;4.30;;;0.30;99.90;;;;;;4863868;29;20443;-76
2022/01/31 00:15:22;;;;;;;15.67;4.40;;;0.30;99.90;;;;;;4863271;29;20458;-80
2022/01/31 00:17:51;;;;;;;14.00;4.57;;;0.30;99.90;;;;;;4863158;29;20507;-77
2022/01/31 00:20:19;;;;;;;11.70;4.50;;;0.30;99.90;;;;;;4862241;29;20463;-77
2022/01/31 00:22:47;;;;;;;11.43;3.90;;;0.30;99.90;;;;;;4862733;29;20536;-78
2022/01/31 00:25:18;;;;;;;11.20;4.17;;;0.40;99.90;;;;;;4863768;29;20563;-76
2022/01/31 00:27:47;;;;;;;13.07;4.50;;;0.50;99.90;;;;;;4864327;29;20480;-78
2022/01/31 00:30:18;;;;;;;11.33;4.30;;;0.50;99.90;;;;;;4864288;29;20466;-77
2022/01/31 00:32:47;;;;;;;8.63;3.80;;;0.60;99.90;;;;;;4863321;29;20464;-77
2022/01/31 00:35:16;;;;;;;12.47;4.30;;;0.60;99.90;;;;;;4863229;29;20476;-76
2022/01/31 00:37:44;;;;;;;11.40;4.03;;;0.70;99.90;;;;;;4864288;29;20488;-76
2022/01/31 00:40:13;;;;;;;11.17;3.80;;;0.70;99.90;;;;;;4862640;29;20459;-77
2022/01/31 00:42:41;;;;;;;14.40;4.50;;;0.80;99.90;;;;;;4859058;29;20491;-76
2022/01/31 00:45:14;;;;;;;12.47;4.13;;;0.80;99.90;;;;;;4863763;29;20491;-78
2022/01/31 00:47:48;;;;;;;13.80;4.37;;;0.90;99.90;;;;;;4863856;29;20259;-77
2022/01/31 00:50:18;;;;;;;12.97;4.30;;;0.90;99.90;;;;;;4863709;29;20245;-76
2022/01/31 00:52:46;;;;;;;17.30;4.30;;;1.00;99.90;;;;;;4845849;29;20488;-76
2022/01/31 00:55:15;;;;;;;12.37;4.00;;;1.00;99.90;;;;;;4844039;29;20969;-76
2022/01/31 00:57:45;;;;;;;12.60;4.27;;;1.10;99.90;;;;;;4844019;29;20492;-79
2022/01/31 01:00:15;;;;;;;10.17;3.97;;;1.10;99.90;;;;;;4844867;29;20567;-77
2022/01/31 01:02:45;;;;;;;9.73;3.70;;;1.10;99.90;;;;;;4851130;29;20524;-76
2022/01/31 01:05:16;;;;;;;15.03;3.93;;;1.00;99.90;;;;;;4864056;29;20306;-76
2022/01/31 01:07:46;;;;;;;13.50;4.40;;;1.10;99.90;;;;;;4863436;29;20436;-79
2022/01/31 01:10:15;;;;;;;12.83;4.03;;;1.10;99.90;;;;;;4863233;29;20646;-78
2022/01/31 01:12:44;;;;;;;9.63;4.43;;;1.10;99.90;;;;;;4863253;29;20826;-77
2022/01/31 01:15:13;;;;;;;11.27;3.90;;;1.10;99.90;;;;;;4863171;29;20298;-76
2022/01/31 01:17:41;;;;;;;12.73;4.33;;;1.10;99.90;;;;;;4862296;29;20238;-76
2022/01/31 01:20:12;;;;;;;12.77;4.57;;;1.10;99.90;;;;;;4863838;29;20496;-76
2022/01/31 01:22:40;;;;;;;12.97;4.43;;;1.10;99.90;;;;;;4863745;29;20477;-76
2022/01/31 01:25:10;;;;;;;11.87;4.67;;;1.10;99.90;;;;;;4862203;29;20460;-76
2022/01/31 01:27:38;;;;;;;13.07;4.13;;;1.20;99.90;;;;;;4862384;29;20493;-76
2022/01/31 01:30:07;;;;;;;12.73;4.43;;;1.20;99.90;;;;;;4861580;29;20294;-77
2022/01/31 01:32:46;;;;;;;10.80;4.10;;;1.20;99.90;;;;;;4862910;29;20559;-75
2022/01/31 01:35:17;;;;;;;16.27;4.37;;;1.20;99.90;;;;;;4865709;29;20222;-77
2022/01/31 01:37:47;;;;;;;11.93;4.13;;;1.20;99.90;;;;;;4871012;29;20215;-77
2022/01/31 01:40:15;;;;;;;13.47;4.37;;;1.20;99.90;;;;;;4873434;29;20211;-77
2022/01/31 01:42:43;;;;;;;10.73;4.07;;;1.30;99.90;;;;;;4862505;29;20575;-77
2022/01/31 01:45:11;;;;;;;10.37;3.87;;;1.30;99.90;;;;;;4861053;29;20299;-76
2022/01/31 01:47:39;;;;;;;12.13;4.03;;;1.30;99.90;;;;;;4860970;29;20302;-78
2022/01/31 01:50:08;;;;;;;13.33;4.53;;;1.30;99.90;;;;;;4860824;29;20250;-76
2022/01/31 01:52:38;;;;;;;14.23;3.93;;;1.30;99.90;;;;;;4860834;29;20317;-75
2022/01/31 01:55:08;;;;;;;11.10;3.67;;;1.30;99.90;;;;;;4860990;29;20207;-77
2022/01/31 01:57:36;;;;;;;10.17;4.30;;;1.30;99.90;;;;;;4860685;29;20219;-75
2022/01/31 02:00:08;;;;;;;11.40;4.30;;;1.40;99.90;;;;;;4860127;29;20242;-78
2022/01/31 02:02:36;;;;;;;13.57;4.40;;;1.40;99.90;;;;;;4860462;29;20915;-76
2022/01/31 02:05:08;;;;;;;12.80;4.03;;;1.40;99.90;;;;;;4861096;29;20555;-76
2022/01/31 02:07:38;;;;;;;15.37;4.07;;;1.40;99.90;;;;;;4862031;29;20195;-77
2022/01/31 02:10:07;;;;;;;11.37;4.43;;;1.30;99.90;;;;;;4860570;29;20243;-77
2022/01/31 02:12:40;;;;;;;12.93;4.03;;;1.40;99.90;;;;;;4860453;29;20206;-76
2022/01/31 02:15:10;;;;;;;15.50;4.43;;;1.40;99.90;;;;;;4861346;29;20294;-76
2022/01/31 02:17:38;;;;;;;12.47;4.33;;;1.40;99.90;;;;;;4863182;29;20897;-75
2022/01/31 02:20:09;;;;;;;13.53;4.47;;;1.40;99.90;;;;;;4860102;29;20238;-77
2022/01/31 02:22:39;;;;;;;12.10;4.20;;;1.50;99.90;;;;;;4860149;29;20246;-78
2022/01/31 02:25:08;;;;;;;11.07;4.10;;;1.40;99.90;;;;;;4860894;29;20460;-77
2022/01/31 02:27:38;;;;;;;10.30;4.20;;;1.40;99.90;;;;;;4860551;29;20558;-80
2022/01/31 02:30:09;;;;;;;9.67;4.33;;;1.40;99.90;;;;;;4860442;29;20233;-77
2022/01/31 02:32:37;;;;;;;12.80;3.87;;;1.40;99.90;;;;;;4860460;29;20306;-75
2022/01/31 02:35:07;;;;;;;13.87;4.20;;;1.40;99.90;;;;;;4860610;29;20246;-79
2022/01/31 02:37:35;;;;;;;14.80;4.43;;;1.40;99.90;;;;;;4860071;29;20311;-78
2022/01/31 02:40:06;;;;;;;12.47;4.23;;;1.40;99.90;;;;;;4860554;29;20528;-80
2022/01/31 02:42:34;;;;;;;15.73;4.40;;;1.40;99.90;;;;;;4865135;29;20305;-77
2022/01/31 02:45:05;;;;;;;11.17;4.47;;;1.40;99.90;;;;;;4878358;29;20688;-76
2022/01/31 02:47:38;;;;;;;12.97;4.63;;;1.50;99.90;;;;;;4879499;29;20457;-77
2022/01/31 02:50:12;;;;;;;16.43;4.37;;;1.40;99.90;;;;;;4878649;29;20190;-78
2022/01/31 02:52:46;;;;;;;11.77;4.03;;;1.40;99.90;;;;;;4873086;29;20274;-78
2022/01/31 02:55:16;;;;;;;14.97;4.07;;;1.50;99.90;;;;;;4860039;29;20210;-79
2022/01/31 02:57:45;;;;;;;14.63;4.10;;;1.50;99.90;;;;;;4860385;29;20230;-78
2022/01/31 03:00:14;;;;;;;13.07;4.57;;;1.50;99.90;;;;;;4859818;29;20293;-78
2022/01/31 03:02:42;;;;;;;12.97;4.70;;;1.50;99.90;;;;;;4865078;29;20248;-80
2022/01/31 03:05:10;;;;;;;14.63;4.43;;;1.40;99.90;;;;;;4878102;29;20474;-80
2022/01/31 03:07:38;;;;;;;12.30;4.37;;;1.40;99.90;;;;;;4878385;29;20270;-78
2022/01/31 03:10:07;;;;;;;12.33;4.17;;;1.40;99.90;;;;;;4878327;29;20293;-77
2022/01/31 03:12:37;;;;;;;13.63;4.67;;;1.40;99.90;;;;;;4877504;29;20297;-80
2022/01/31 03:15:06;;;;;;;14.00;4.77;;;1.40;99.90;;;;;;4878227;29;20245;-79
2022/01/31 03:17:35;;;;;;;14.40;4.67;;;1.40;99.90;;;;;;4878470;29;20495;-77
2022/01/31 03:20:04;;;;;;;13.93;4.50;;;1.40;99.90;;;;;;4878194;29;20550;-79
2022/01/31 03:22:32;;;;;;;12.20;4.33;;;1.40;99.90;;;;;;4873601;29;20241;-76
2022/01/31 03:25:00;;;;;;;13.27;4.17;;;1.40;99.90;;;;;;4859917;29;20215;-78
2022/01/31 03:27:28;;;;;;;12.00;4.40;;;1.30;99.90;;;;;;4859712;29;21015;-77
2022/01/31 03:29:58;;;;;;;13.87;4.33;;;1.30;99.90;;;;;;4860596;29;20534;-80
2022/01/31 03:32:26;;;;;;;16.50;4.70;;;1.30;99.90;;;;;;4863119;29;20633;-78
2022/01/31 03:34:54;;;;;;;13.07;4.67;;;1.30;99.90;;;;;;4881234;29;20257;-76
2022/01/31 03:37:23;;;;;;;12.47;4.20;;;1.30;99.90;;;;;;4902718;29;20490;-75
2022/01/31 03:39:50;;;;;;;13.53;4.03;;;1.30;99.90;;;;;;4903301;29;20515;-77
2022/01/31 03:42:18;;;;;;;11.87;4.20;;;1.30;99.90;;;;;;4901812;29;20262;-77
2022/01/31 03:44:47;;;;;;;15.73;4.80;;;1.30;99.90;;;;;;4885014;29;20259;-77
2022/01/31 03:47:18;;;;;;;12.13;4.40;;;1.40;99.90;;;;;;4884302;29;20466;-75
2022/01/31 03:49:48;;;;;;;15.90;4.43;;;1.40;99.90;;;;;;4885144;29;20440;-79
2022/01/31 03:52:16;;;;;;;8.13;4.10;;;1.40;99.90;;;;;;4884716;29;20200;-80
2022/01/31 03:54:45;;;;;;;11.47;4.40;;;1.40;99.90;;;;;;4902547;29;20262;-78
2022/01/31 03:57:14;;;;;;;13.57;4.30;;;1.40;99.90;;;;;;4902663;29;20233;-76
2022/01/31 03:59:42;;;;;;;13.50;4.27;;;1.40;99.90;;;;;;4903169;29;20478;-78
2022/01/31 04:02:10;;;;;;;8.97;4.03;;;1.40;99.90;;;;;;4890592;29;20270;-78
2022/01/31 04:04:40;;;;;;;12.83;4.13;;;1.40;99.90;;;;;;4903159;29;20511;-77
2022/01/31 04:07:08;;;;;;;15.87;4.40;;;1.40;99.90;;;;;;4902921;29;20522;-78
2022/01/31 04:09:36;;;;;;;17.77;4.67;;;1.40;99.90;;;;;;4902670;29;20490;-79
2022/01/31 04:12:05;;;;;;;13.30;5.00;;;1.40;99.90;;;;;;4900580;29;20447;-78
2022/01/31 04:14:33;;;;;;;15.43;4.47;;;1.40;99.90;;;;;;4902143;29;20510;-77
2022/01/31 04:17:01;;;;;;;11.00;4.00;;;1.40;99.90;;;;;;4901823;29;20210;-78
2022/01/31 04:19:29;;;;;;;14.10;4.30;;;1.40;99.90;;;;;;4901567;29;20222;-79
2022/01/31 04:21:59;;;;;;;15.40;4.93;;;1.40;99.90;;;;;;4893310;29;20520;-78
2022/01/31 04:24:32;;;;;;;15.20;4.57;;;1.40;99.90;;;;;;4863383;29;20459;-78
2022/01/31 04:27:05;;;;;;;12.00;4.13;;;1.40;99.90;;;;;;4863399;29;20458;-78
2022/01/31 04:29:36;;;;;;;11.87;4.30;;;1.40;99.90;;;;;;4863408;29;20519;-78
2022/01/31 04:32:05;;;;;;;11.10;3.97;;;1.40;99.90;;;;;;4870248;29;20465;-77
2022/01/31 04:34:33;;;;;;;10.10;4.17;;;1.40;99.90;;;;;;4881034;29;20249;-77
2022/01/31 04:37:03;;;;;;;13.90;4.50;;;1.40;99.90;;;;;;4881139;29;20331;-77
2022/01/31 04:39:33;;;;;;;14.63;4.13;;;1.40;99.90;;;;;;4880646;29;20561;-76
2022/01/31 04:42:01;;;;;;;14.00;4.93;;;1.40;99.90;;;;;;4872861;29;20487;-77
2022/01/31 04:44:29;;;;;;;13.03;4.27;;;1.40;99.90;;;;;;4860938;29;20456;-76
2022/01/31 04:46:57;;;;;;;14.43;4.80;;;1.40;99.90;;;;;;4861846;29;20466;-75
2022/01/31 04:49:25;;;;;;;13.97;4.27;;;1.40;99.90;;;;;;4861682;29;20299;-79
2022/01/31 04:51:56;;;;;;;15.60;4.43;;;1.40;99.90;;;;;;4867315;29;20214;-76
2022/01/31 04:54:25;;;;;;;13.33;4.17;;;1.40;99.90;;;;;;4880003;29;20910;-80
2022/01/31 04:56:54;;;;;;;12.60;4.43;;;1.40;99.90;;;;;;4871388;29;20973;-78
2022/01/31 04:59:22;;;;;;;12.57;4.30;;;1.40;99.90;;;;;;4862030;29;20666;-77
2022/01/31 05:01:50;;;;;;;12.73;4.47;;;1.40;99.90;;;;;;4860970;29;20499;-79
2022/01/31 05:04:18;;;;;;;9.50;3.70;;;1.50;99.90;;;;;;4861261;29;20670;-77
2022/01/31 05:06:48;;;;;;;16.33;4.43;;;1.50;99.90;;;;;;4861360;29;20290;-79
2022/01/31 05:09:16;;;;;;;15.63;4.13;;;1.50;99.90;;;;;;4877523;29;20238;-78
2022/01/31 05:11:46;;;;;;;14.30;4.43;;;1.50;99.90;;;;;;4879219;29;20487;-77
2022/01/31 05:14:16;;;;;;;15.63;4.07;;;1.50;99.90;;;;;;4879721;29;20911;-77
2022/01/31 05:16:43;;;;;;;17.33;4.00;;;1.50;99.90;;;;;;4879690;29;20289;-79
2022/01/31 05:19:12;;;;;;;13.80;4.27;;;1.50;99.90;;;;;;4863525;29;20495;-78
2022/01/31 05:21:40;;;;;;;12.20;3.77;;;1.50;99.90;;;;;;4860599;29;20495;-80
2022/01/31 05:24:10;;;;;;;17.47;4.27;;;1.50;99.90;;;;;;4860830;29;20915;-78
2022/01/31 05:26:38;;;;;;;16.63;4.20;;;1.60;99.90;;;;;;4860950;29;20306;-78
2022/01/31 05:29:07;;;;;;;14.23;4.07;;;1.60;99.90;;;;;;4860864;29;20258;-79
2022/01/31 05:31:35;;;;;;;10.83;4.10;;;1.60;99.90;;;;;;4860628;29;20491;-81
2022/01/31 05:34:05;;;;;;;10.67;4.00;;;1.60;99.90;;;;;;4862243;29;20211;-78
2022/01/31 05:36:33;;;;;;;14.27;4.00;;;1.60;99.90;;;;;;4862040;29;20249;-78
2022/01/31 05:39:04;;;;;;;14.40;4.37;;;1.60;99.90;;;;;;4874721;29;20230;-75
2022/01/31 05:44:37;;;;;;;13.53;4.47;;;1.70;99.90;;;;;;4868016;29;20226;-76
2022/01/31 05:47:06;;;;;;;14.07;4.40;;;1.60;99.90;;;;;;4861662;29;20234;-76
2022/01/31 05:49:35;;;;;;;16.43;4.90;;;1.70;99.90;;;;;;4862673;29;20255;-80
2022/01/31 05:52:07;;;;;;;14.00;5.47;;;1.70;99.90;;;;;;4860869;29;20963;-77
2022/01/31 05:54:39;;;;;;;14.80;5.13;;;1.70;99.90;;;;;;4860044;29;20221;-78
2022/01/31 05:57:08;;;;;;;12.43;4.80;;;1.70;99.90;;;;;;4858179;29;20234;-77
2022/01/31 05:59:39;;;;;;;12.97;4.87;;;1.70;99.90;;;;;;4866256;29;20535;-79
2022/01/31 06:02:07;;;;;;;13.00;4.70;;;1.70;99.90;;;;;;4862078;29;20314;-75
2022/01/31 06:04:35;;;;;;;11.57;4.20;;;1.70;99.90;;;;;;4866148;29;20232;-78
2022/01/31 06:07:05;;;;;;;14.80;4.77;;;1.60;99.90;;;;;;4872152;29;20676;-77
2022/01/31 06:09:34;;;;;;;10.13;4.73;;;1.70;99.90;;;;;;4865066;29;20206;-76
2022/01/31 06:12:03;;;;;;;10.87;5.20;;;1.80;99.90;;;;;;4872311;29;20805;-76
2022/01/31 06:14:31;;;;;;;12.33;5.20;;;1.80;99.90;;;;;;4887675;29;20259;-79
2022/01/31 06:17:00;;;;;;;12.50;5.57;;;1.70;99.90;;;;;;4887097;29;20210;-77
2022/01/31 06:19:29;;;;;;;17.33;5.70;;;1.80;99.90;;;;;;4887314;29;20245;-77
2022/01/31 06:21:57;;;;;;;12.10;5.17;;;1.70;99.90;;;;;;4863582;29;20492;-77
2022/01/31 06:24:25;;;;;;;12.67;6.00;;;1.70;99.90;;;;;;4864081;29;20298;-78
2022/01/31 06:26:54;;;;;;;12.70;5.63;;;1.70;99.90;;;;;;4862338;29;20495;-79
2022/01/31 06:29:22;;;;;;;11.57;5.03;;;1.70;99.90;;;;;;4861070;29;20211;-78
2022/01/31 06:31:50;;;;;;;10.73;5.00;;;1.70;99.90;;;;;;4860979;29;20460;-79
2022/01/31 06:34:20;;;;;;;12.17;6.40;;;1.70;99.90;;;;;;4861003;29;20498;-77
2022/01/31 06:36:48;;;;;;;16.23;5.80;;;1.60;99.90;;;;;;4844936;29;20468;-78
2022/01/31 06:39:16;;;;;;;11.13;6.00;;;1.60;99.90;;;;;;4865418;29;20317;-77
2022/01/31 06:41:45;;;;;;;12.80;6.40;;;1.60;99.90;;;;;;4878135;29;20494;-78
2022/01/31 06:44:13;;;;;;;11.67;6.47;;;1.60;99.90;;;;;;4890780;29;20455;-77
2022/01/31 06:46:41;;;;;;;11.50;6.10;;;1.70;99.90;;;;;;4890415;29;20310;-78
2022/01/31 06:49:10;;;;;;;12.60;5.63;;;1.60;99.90;;;;;;4887177;29;20202;-78
2022/01/31 06:51:39;;;;;;;13.40;6.00;;;1.60;99.90;;;;;;4862178;29;20211;-79
2022/01/31 06:54:07;;;;;;;12.17;6.17;;;1.70;99.90;;;;;;4860629;29;20463;-78
2022/01/31 06:56:39;;;;;;;14.53;7.13;;;1.70;99.90;;;;;;4859971;29;20468;-78
2022/01/31 06:59:07;;;;;;;13.43;6.30;;;1.70;99.90;;;;;;4862712;29;20290;-77
2022/01/31 07:01:35;;;;;;;12.53;5.90;;;1.80;99.90;;;;;;4877422;29;20542;-78
2022/01/31 07:04:04;;;;;;;10.47;6.07;;;1.80;99.90;;;;;;4860526;29;20844;-78
2022/01/31 07:06:32;;;;;;;10.33;4.93;;;1.80;99.90;;;;;;4860257;29;20468;-78
2022/01/31 07:09:03;;;;;;;10.43;5.40;;;1.80;99.90;;;;;;4864587;29;20522;-78
2022/01/31 07:11:36;;;;;;;12.33;5.40;;;1.80;99.90;;;;;;4863745;29;20210;-78
2022/01/31 07:14:08;;;;;;;11.70;5.17;;;1.80;99.90;;;;;;4863451;29;20234;-78
2022/01/31 07:16:36;;;;;;;11.27;4.97;;;1.90;99.90;;;;;;4862744;29;20206;-77
2022/01/31 07:19:07;;;;;;;7.67;4.53;;;2.00;99.90;;;;;;4863434;29;20207;-75
2022/01/31 07:21:39;;;;;;;9.33;4.43;;;2.00;99.90;;;;;;4863371;29;20642;-77
2022/01/31 07:24:21;;;;;;;8.53;4.30;;;2.00;99.90;;;;;;4860131;29;20661;-78
2022/01/31 07:26:51;;;;;;;7.73;4.30;;;2.00;99.90;;;;;;4861274;29;20235;-75
2022/01/31 07:29:20;;;;;;;9.73;3.70;;;2.10;99.90;;;;;;4862544;29;20826;-79
2022/01/31 07:31:49;;;;;;;8.07;3.63;;;2.20;99.90;;;;;;4860839;29;20219;-76
2022/01/31 07:34:18;;;;;;;9.77;3.83;;;2.20;99.90;;;;;;4862857;29;20293;-76
2022/01/31 07:36:47;;;;;;;7.83;3.50;;;2.20;99.90;;;;;;4863762;29;20297;-75
2022/01/31 07:39:17;;;;;;;10.30;3.93;;;2.30;99.90;;;;;;4862749;29;20596;-76
2022/01/31 07:41:49;;;;;;;9.13;3.20;;;2.30;99.90;;;;;;4861786;29;20697;-75
2022/01/31 07:44:17;;;;;;;7.67;3.03;;;2.40;99.90;;;;;;4863348;29;20290;-80
2022/01/31 07:46:45;;;;;;;8.07;3.37;;;2.40;99.90;;;;;;4862488;29;20219;-75
2022/01/31 07:49:13;;;;;;;8.17;3.40;;;2.40;99.90;;;;;;4862698;29;20543;-77
2022/01/31 07:51:41;;;;;;;9.10;3.40;;;2.50;99.90;;;;;;4862941;29;20258;-79
2022/01/31 07:54:10;;;;;;;7.77;2.70;;;2.50;99.90;;;;;;4863239;29;20673;-78
2022/01/31 07:56:40;;;;;;;9.83;3.37;;;2.60;99.90;;;;;;4865751;29;20363;-77
2022/01/31 07:59:08;;;;;;;11.30;3.13;;;2.60;99.90;;;;;;4868847;29;20246;-81
2022/01/31 08:01:36;;;;;;;12.63;3.40;;;2.70;99.90;;;;;;4878536;29;20238;-79
2022/01/31 08:04:06;;;;;;;9.13;3.10;;;2.70;99.90;;;;;;4868627;29;20215;-77
2022/01/31 08:06:34;;;;;;;9.90;3.33;;;2.70;99.90;;;;;;4870154;29;20207;-75
2022/01/31 08:09:04;;;;;;;9.80;3.13;;;2.70;99.90;;;;;;4869654;29;20215;-76
2022/01/31 08:11:35;;;;;;;8.27;3.13;;;2.80;99.90;;;;;;4871533;29;20279;-77
2022/01/31 08:14:08;;;;;;;8.30;3.00;;;2.80;99.90;;;;;;4870798;29;20240;-79
2022/01/31 08:16:38;;;;;;;9.27;3.33;;;2.80;99.90;;;;;;4869709;29;20468;-79
2022/01/31 08:19:08;;;;;;;8.07;3.07;;;2.80;99.90;;;;;;4861332;29;20263;-78
2022/01/31 08:21:56;;;;;;;8.33;4.03;;;2.90;99.90;;;;;;4865061;29;20243;-79
2022/01/31 08:24:24;;;;;;;7.93;3.13;;;3.00;99.90;;;;;;4864309;29;20235;-79
2022/01/31 08:26:56;;;;;;;6.20;2.83;;;3.00;99.90;;;;;;4863099;29;20682;-78
2022/01/31 08:29:30;;;;;;;8.70;3.20;;;3.10;99.90;;;;;;4876015;29;20274;-76
2022/01/31 08:32:08;;;;;;;4.63;2.57;;;3.10;99.90;;;;;;4877370;29;20249;-74
2022/01/31 08:37:23;;;;;;;8.33;2.83;;;3.20;99.90;;;;;;4862625;29;20267;-75
2022/01/31 08:39:51;;;;;;;8.33;3.53;;;3.20;99.90;;;;;;4861286;29;20826;-76
2022/01/31 08:42:20;;;;;;;9.10;3.20;;;3.10;99.90;;;;;;4861370;29;20713;-77
2022/01/31 08:44:50;;;;;;;9.70;3.70;;;3.00;99.90;;;;;;4856136;29;20682;-79
2022/01/31 08:47:18;;;;;;;8.80;3.43;;;3.10;99.90;;;;;;4860869;29;20258;-77
2022/01/31 08:49:49;;;;;;;5.90;3.23;;;3.10;99.90;;;;;;4858500;29;20694;-77
2022/01/31 08:52:17;;;;;;;12.33;3.90;;;3.10;99.90;;;;;;4860024;29;20306;-79
2022/01/31 08:54:47;;;;;;;9.03;3.10;;;3.10;99.90;;;;;;4861662;29;20298;-78
2022/01/31 08:57:20;;;;;;;6.33;3.30;;;3.10;99.90;;;;;;4864887;29;20298;-77
2022/01/31 08:59:54;;;;;;;9.03;3.27;;;3.00;99.90;;;;;;4861032;29;20239;-76
2022/01/31 09:02:36;;;;;;;8.00;3.57;;;3.00;99.90;;;;;;4859455;29;20218;-80
2022/01/31 09:05:08;;;;;;;6.73;3.40;;;2.90;99.90;;;;;;4857880;29;20309;-79
2022/01/31 09:07:36;;;;;;;9.13;4.10;;;2.80;99.90;;;;;;4857661;29;20211;-79
2022/01/31 09:10:07;;;;;;;6.60;3.53;;;2.70;99.90;;;;;;4859352;29;20824;-78
2022/01/31 09:12:36;;;;;;;10.23;4.03;;;2.80;99.90;;;;;;4856408;29;20212;-76
2022/01/31 09:15:07;;;;;;;7.93;3.70;;;2.70;99.90;;;;;;4859256;29;20210;-77
2022/01/31 09:17:36;;;;;;;6.82;4.03;;;2.80;99.90;;;;;;4859781;29;20455;-78
2022/01/31 09:20:06;;;;;;;7.70;3.80;;;2.80;99.90;;;;;;4861188;29;20210;-76
2022/01/31 09:22:35;;;;;;;7.83;4.30;;;2.70;99.90;;;;;;4866302;29;20805;-76
2022/01/31 09:25:03;;;;;;;7.53;3.80;;;2.80;99.90;;;;;;4860892;29;20318;-77
2022/01/31 09:27:32;;;;;;;6.53;4.23;;;2.70;99.90;;;;;;4859445;29;20290;-77
2022/01/31 09:30:01;;;;;;;6.70;4.07;;;2.70;99.90;;;;;;4864554;29;20222;-80
2022/01/31 09:32:31;;;;;;;6.57;4.00;;;2.80;99.90;;;;;;4865209;29;20246;-77
2022/01/31 09:35:00;;;;;;;8.10;4.13;;;2.80;99.90;;;;;;4861248;29;20231;-77
2022/01/31 09:37:28;;;;;;;6.83;3.80;;;2.80;99.90;;;;;;4871255;29;20267;-78
2022/01/31 09:40:03;;;;;;;8.03;3.50;;;2.90;99.90;;;;;;4855987;29;20643;-77
2022/01/31 09:42:37;;;;;;;7.47;3.50;;;2.90;99.90;;;;;;4867205;29;20282;-81
2022/01/31 09:45:15;;;;;;;10.10;4.20;;;2.90;99.90;;;;;;4869426;29;20254;-80
2022/01/31 09:50:34;;;;;;;7.73;3.87;;;2.90;99.90;;;;;;4874924;29;20191;-79
2022/01/31 09:53:04;;;;;;;4.53;3.47;;;2.80;99.90;;;;;;4875375;29;20214;-78
2022/01/31 09:55:34;;;;;;;7.20;3.80;;;2.80;99.90;;;;;;4859108;29;20239;-78
2022/01/31 09:58:07;;;;;;;6.13;3.60;;;2.80;99.90;;;;;;4860534;29;20468;-76
2022/01/31 10:00:35;;;;;;;6.00;3.67;;;2.80;99.90;;;;;;4863272;29;20223;-77
2022/01/31 10:03:09;;;;;;;5.97;3.43;;;2.80;99.90;;;;;;4864430;29;20234;-77
2022/01/31 10:05:41;;;;;;;7.30;3.60;;;2.80;99.90;;;;;;4856901;29;20206;-79
2022/01/31 10:08:14;;;;;;;6.17;4.10;;;2.80;99.90;;;;;;4862126;29;20524;-76
2022/01/31 10:10:45;;;;;;;6.40;3.73;;;2.80;99.90;;;;;;4861386;29;20230;-76
2022/01/31 10:16:27;;;;;;;5.53;3.47;;;2.90;99.90;;;;;;4861326;29;20269;-79
2022/01/31 10:19:09;;;;;;;4.23;3.17;;;2.90;99.90;;;;;;4860329;29;20279;-78
2022/01/31 10:21:56;;;;;;;5.23;3.47;;;2.90;99.90;;;;;;4857217;29;20209;-76
2022/01/31 10:24:25;;;;;;;8.53;3.67;;;2.90;99.90;;;;;;4859439;29;20511;-76
2022/01/31 10:26:55;;;;;;;3.80;2.80;;;2.90;99.90;;;;;;4847059;29;20463;-77
2022/01/31 10:29:25;;;;;;;5.07;2.77;;;2.90;99.90;;;;;;4860697;29;20310;-79
2022/01/31 10:31:56;;;;;;;3.63;2.30;;;2.90;99.90;;;;;;4855594;29;20212;-78
2022/01/31 10:34:33;;;;;;;4.30;2.40;;;2.90;99.90;;;;;;4858348;29;20270;-77
2022/01/31 10:37:07;;;;;;;3.40;2.30;;;2.90;99.90;;;;;;4858943;29;20539;-77
2022/01/31 10:54:24;;;;;;;2.83;2.40;;;3.10;99.90;;;;;;4861974;29;20468;-78
2022/01/31 10:56:54;;;;;;;2.70;2.10;;;3.20;99.90;;;;;;4859120;29;20203;-77
2022/01/31 10:59:26;;;;;;;2.07;1.70;;;3.60;99.90;;;;;;4863307;29;20219;-78
2022/01/31 11:01:57;;;;;;;3.03;1.60;;;4.40;99.90;;;;;;4862277;29;20467;-79
2022/01/31 11:04:31;;;;;;;2.43;1.60;;;4.60;99.90;;;;;;4864193;29;20298;-80
2022/01/31 11:07:03;;;;;;;2.67;1.67;;;4.50;99.90;;;;;;4864697;29;20298;-78
2022/01/31 11:09:32;;;;;;;1.97;1.80;;;4.50;99.90;;;;;;4871989;29;20239;-78
2022/01/31 11:12:01;;;;;;;2.73;2.13;;;4.50;99.90;;;;;;4865105;29;20613;-78
2022/01/31 11:14:30;;;;;;;2.93;1.97;;;4.20;99.90;;;;;;4863725;29;20615;-79
2022/01/31 11:16:58;;;;;;;3.00;2.10;;;4.30;99.90;;;;;;4863554;29;20267;-80
2022/01/31 11:19:32;;;;;;;2.07;1.87;;;4.30;99.90;;;;;;4863449;29;20626;-76
2022/01/31 11:22:05;;;;;;;2.27;1.70;;;4.20;99.90;;;;;;4862908;29;20238;-78
2022/01/31 11:24:39;;;;;;;2.37;1.90;;;4.00;99.90;;;;;;4863446;29;20248;-79
2022/01/31 11:27:10;;;;;;;2.40;2.10;;;4.10;99.90;;;;;;4863416;29;20261;-77
2022/01/31 11:29:42;;;;;;;2.97;1.90;;;4.10;99.90;;;;;;4864025;29;20215;-75
2022/01/31 11:32:11;;;;;;;3.47;2.00;;;4.00;99.90;;;;;;4863145;29;20278;-78
2022/01/31 11:34:41;;;;;;;2.53;1.63;;;4.10;99.90;;;;;;4863230;29;20313;-79
2022/01/31 11:37:13;;;;;;;2.30;1.73;;;4.10;99.90;;;;;;4863488;29;20282;-78
2022/01/31 11:39:44;;;;;;;2.57;1.50;;;4.00;99.90;;;;;;4849167;29;20216;-80
2022/01/31 11:42:14;;;;;;;3.17;1.63;;;4.00;99.90;;;;;;4863135;29;20221;-80
2022/01/31 11:44:54;;;;;;;2.47;1.90;;;4.00;99.90;;;;;;4863341;29;20686;-78
2022/01/31 11:47:26;;;;;;;2.73;1.73;;;3.90;99.90;;;;;;4863094;29;20301;-77
2022/01/31 11:49:57;;;;;;;2.70;1.73;;;4.00;99.90;;;;;;4862973;29;20224;-79
2022/01/31 11:52:32;;;;;;;2.40;1.73;;;3.90;99.90;;;;;;4862967;29;20221;-80
2022/01/31 11:55:05;;;;;;;1.83;1.53;;;3.90;99.90;;;;;;4856111;29;20293;-78
2022/01/31 11:57:36;;;;;;;2.73;1.40;;;3.90;99.90;;;;;;4863222;29;20203;-78
2022/01/31 12:00:08;;;;;;;2.83;1.50;;;3.90;99.90;;;;;;4878140;29;20214;-79
2022/01/31 12:02:43;;;;;;;2.13;1.50;;;3.80;99.90;;;;;;4872124;29;20664;-77
2022/01/31 12:05:16;;;;;;;1.77;1.40;;;3.70;99.90;;;;;;4863230;29;20692;-79
2022/01/31 12:07:48;;;;;;;1.80;1.57;;;3.70;99.90;;;;;;4865044;29;20203;-77
2022/01/31 12:10:22;;;;;;;2.77;1.90;;;3.60;99.90;;;;;;4863043;29;20255;-77
2022/01/31 12:12:55;;;;;;;2.30;1.60;;;3.50;99.90;;;;;;4862463;29;20219;-78
2022/01/31 12:16:09;;;;;;;3.17;1.80;;;3.50;99.90;;;;;;4862368;29;20207;-78
2022/01/31 12:18:57;;;;;;;2.30;1.40;;;3.60;99.90;;;;;;4861939;29;20298;-77
2022/01/31 12:21:59;;;;;;;2.40;1.70;;;3.70;99.90;;;;;;4862100;29;20239;-78
2022/01/31 12:24:34;;;;;;;1.87;1.30;;;3.80;99.90;;;;;;4859364;29;20636;-79
2022/01/31 12:27:11;;;;;;;2.10;1.67;;;3.90;99.90;;;;;;4863158;29;20254;-76
2022/01/31 12:29:43;;;;;;;2.13;1.47;;;4.00;99.90;;;;;;4862623;29;20222;-77
2022/01/31 12:32:17;;;;;;;2.50;1.57;;;4.20;99.90;;;;;;4861732;29;20555;-77
2022/01/31 12:34:53;;;;;;;2.03;1.77;;;4.20;99.90;;;;;;4862217;29;20553;-77
2022/01/31 12:37:26;;;;;;;1.93;1.63;;;4.30;99.90;;;;;;4860938;29;20240;-76
2022/01/31 12:40:01;;;;;;;3.43;1.40;;;4.30;99.90;;;;;;4861799;29;20248;-79
2022/01/31 12:42:52;;;;;;;2.27;1.53;;;4.30;99.90;;;;;;4860756;29;20800;-79
2022/01/31 12:45:24;;;;;;;3.27;1.53;;;4.20;99.90;;;;;;4862969;29;20229;-77
2022/01/31 12:48:14;;;;;;;2.90;1.57;;;4.20;99.90;;;;;;4854231;29;20299;-79
2022/01/31 12:50:45;;;;;;;3.30;1.40;;;4.30;99.90;;;;;;4864556;29;20278;-78
2022/01/31 12:53:43;;;;;;;1.70;1.40;;;4.40;99.90;;;;;;4865137;29;20225;-81
2022/01/31 12:56:21;;;;;;;1.90;1.33;;;4.40;99.90;;;;;;4860223;29;20208;-78
2022/01/31 12:58:54;;;;;;;2.85;1.60;;;4.40;99.90;;;;;;4856971;29;20868;-77
2022/01/31 13:01:24;;;;;;;2.60;1.33;;;4.30;99.90;;;;;;4857927;29;20215;-78
2022/01/31 13:03:55;;;;;;;2.30;1.50;;;4.30;99.90;;;;;;4871356;29;20267;-79
2022/01/31 13:06:39;;;;;;;1.33;1.20;;;4.30;99.90;;;;;;4865154;29;20228;-81
2022/01/31 13:09:13;;;;;;;2.57;1.40;;;4.30;99.90;;;;;;4865539;29;20237;-80
2022/01/31 13:11:45;;;;;;;1.97;1.40;;;4.30;99.90;;;;;;4860853;29;20245;-77
2022/01/31 13:14:16;;;;;;;2.70;1.30;;;4.30;99.90;;;;;;4863696;29;20223;-81
2022/01/31 13:17:08;;;;;;;1.90;1.13;;;4.30;99.90;;;;;;4861341;29;20242;-78
2022/01/31 13:19:39;;;;;;;2.60;1.10;;;4.30;99.90;;;;;;4868246;29;20194;-79
2022/01/31 13:22:10;;;;;;;1.63;1.15;;;4.20;99.90;;;;;;4859230;29;20919;-78
2022/01/31 13:24:41;;;;;;;1.73;1.15;;;4.20;99.90;;;;;;4866332;29;20459;-77
2022/01/31 13:27:14;;;;;;;2.10;1.10;;;4.10;99.90;;;;;;4868313;29;20221;-82
2022/01/31 13:30:04;;;;;;;1.90;1.20;;;4.00;99.90;;;;;;4869363;29;20239;-81
2022/01/31 13:32:33;;;;;;;1.77;1.20;;;3.90;99.90;;;;;;4868393;29;20654;-84
2022/01/31 13:35:07;;;;;;;1.73;1.20;;;3.90;99.90;;;;;;4864871;29;20261;-80